Terminal Aerodrome Forecast
Issued by NWS Denver/Boulder, CO

Home | Current Version | Previous Version | Text Only | Print | Product List | Glossary On
Versions: 1 2 3 4 5 6 7 8 9 10 11 12 13 14 15 16 17 18 19 20 21 22 23 24 25 26 27 28 29 30 31 32 33 34 35 36 37 38 39 40 41 42 43 44 45 46 47 48 49 50
000
FTUS45 KBOU 032336
TAFDEN
TAF
KDEN 032336Z 0400/0506 16012KT P6SM SCT080 BKN120
     FM040200 21010KT P6SM VCTS SCT080CB BKN120
      TEMPO 0402/0404 24020G30KT BKN080CB
     FM040600 19009KT P6SM FEW090 SCT120 BKN180
     FM041000 21010KT P6SM FEW110
     FM041700 27010KT P6SM FEW110
     FM042200 30012G20KT P6SM FEW110
     FM050300 20008KT P6SM SKC=

USA.gov is the U.S. government's official web portal to all federal, state and local government web resources and services.